createdAt,value
2016-03-14T00:00:20.776Z,21.68
2016-03-14T00:01:20.795Z,21.69
2016-03-14T00:02:20.782Z,21.77
2016-03-14T00:03:20.800Z,21.72
2016-03-14T00:04:20.787Z,21.67
2016-03-14T00:05:20.650Z,21.67
2016-03-14T00:06:20.652Z,21.72
2016-03-14T00:07:20.811Z,21.68
2016-03-14T00:08:20.814Z,21.68
2016-03-14T00:09:20.833Z,21.67
2016-03-14T00:10:20.835Z,21.62
2016-03-14T00:11:20.838Z,21.72
2016-03-14T00:12:20.856Z,21.69
2016-03-14T00:13:20.843Z,21.74
2016-03-14T00:14:20.861Z,21.64
2016-03-14T00:15:20.849Z,21.74
2016-03-14T00:16:20.866Z,21.77
2016-03-14T00:17:20.870Z,21.62
2016-03-14T00:18:20.888Z,21.62
2016-03-14T00:19:20.875Z,21.65
2016-03-14T00:20:20.893Z,21.69
2016-03-14T00:21:20.880Z,21.72
2016-03-14T00:22:20.898Z,21.68
2016-03-14T00:23:20.901Z,21.67
2016-03-14T00:24:20.919Z,21.64
2016-03-14T00:25:20.906Z,21.65
2016-03-14T00:26:20.924Z,21.69
2016-03-14T00:27:20.912Z,21.65
2016-03-14T00:28:20.946Z,21.64
2016-03-14T00:29:20.932Z,21.61
2016-03-14T00:30:20.951Z,21.68
2016-03-14T00:31:20.938Z,21.62
2016-03-14T00:32:20.940Z,21.65
2016-03-14T00:33:20.959Z,21.68
2016-03-14T00:34:20.962Z,21.68
2016-03-14T00:35:20.964Z,21.67
2016-03-14T00:36:20.968Z,21.77
2016-03-14T00:37:20.986Z,21.71
2016-03-14T00:38:20.973Z,21.65
2016-03-14T00:39:20.991Z,21.62
2016-03-14T00:40:20.978Z,21.59
2016-03-14T00:41:20.996Z,21.69
2016-03-14T00:42:20.842Z,21.62
2016-03-14T00:43:21.002Z,21.67
2016-03-14T00:44:21.005Z,21.69
2016-03-14T00:45:21.007Z,21.64
2016-03-14T00:46:21.010Z,21.67
2016-03-14T00:47:21.013Z,21.68
2016-03-14T00:48:21.030Z,21.72
2016-03-14T00:49:21.049Z,21.65
2016-03-14T00:50:21.052Z,21.72
2016-03-14T00:51:21.054Z,21.72
2016-03-14T00:52:21.057Z,21.71
2016-03-14T00:53:21.060Z,21.77
2016-03-14T00:54:21.062Z,21.69
2016-03-14T00:55:21.065Z,21.71
2016-03-14T00:56:21.084Z,21.77
2016-03-14T00:57:21.087Z,21.71
2016-03-14T00:58:21.233Z,21.79
2016-03-14T00:59:22.337Z,21.86
2016-03-14T01:00:21.111Z,21.79
2016-03-14T01:01:22.781Z,21.77
2016-03-14T01:02:21.109Z,21.68
2016-03-14T01:03:21.112Z,21.71
2016-03-14T01:04:21.114Z,21.67
2016-03-14T01:05:21.117Z,21.65
2016-03-14T01:06:21.120Z,21.75
2016-03-14T01:07:21.122Z,21.75
2016-03-14T01:08:21.126Z,21.75
2016-03-14T01:09:21.128Z,21.72
2016-03-14T01:10:21.147Z,21.75
2016-03-14T01:11:21.149Z,21.74
2016-03-14T01:12:21.152Z,21.69
2016-03-14T01:13:21.155Z,21.8
2016-03-14T01:14:21.157Z,21.68
2016-03-14T01:15:21.160Z,21.65
2016-03-14T01:16:21.178Z,21.71
2016-03-14T01:17:21.196Z,21.68
2016-03-14T01:18:21.185Z,21.77
2016-03-14T01:19:21.187Z,21.74
2016-03-14T01:20:21.189Z,21.69
2016-03-14T01:21:21.254Z,21.75
2016-03-14T01:22:21.210Z,21.79
2016-03-14T01:23:21.212Z,21.67
2016-03-14T01:24:21.215Z,21.71
2016-03-14T01:25:21.249Z,21.77
2016-03-14T01:26:21.236Z,21.68
2016-03-14T01:27:21.239Z,21.72
2016-03-14T01:28:21.242Z,21.71
2016-03-14T01:29:21.245Z,21.79
2016-03-14T01:30:21.263Z,21.77
2016-03-14T01:31:21.250Z,21.68
2016-03-14T01:32:21.268Z,21.69
2016-03-14T01:33:21.255Z,21.75
2016-03-14T01:34:21.273Z,21.77
2016-03-14T01:35:21.276Z,21.72
2016-03-14T01:36:21.278Z,21.79
2016-03-14T01:37:21.281Z,21.71
2016-03-14T01:38:21.300Z,21.74
2016-03-14T01:39:21.319Z,21.72
2016-03-14T01:40:21.305Z,21.68
2016-03-14T01:41:21.324Z,21.71
2016-03-14T01:42:21.311Z,21.75
2016-03-14T01:43:21.329Z,21.75
2016-03-14T01:44:21.332Z,21.72
2016-03-14T01:45:21.335Z,21.75
2016-03-14T01:46:21.337Z,21.72
2016-03-14T01:47:21.355Z,21.75
2016-03-14T01:48:21.343Z,21.79
2016-03-14T01:49:21.360Z,21.72
2016-03-14T01:50:21.363Z,21.88
2016-03-14T01:51:21.366Z,21.82
2016-03-14T01:52:21.368Z,21.74
2016-03-14T01:53:21.387Z,21.82
2016-03-14T01:54:21.373Z,21.86
2016-03-14T01:55:21.377Z,21.9
2016-03-14T01:56:21.395Z,21.8
2016-03-14T01:57:21.429Z,21.75
2016-03-14T01:58:21.401Z,21.86
2016-03-14T01:59:21.419Z,21.86
2016-03-14T02:00:21.422Z,21.74
2016-03-14T02:01:21.425Z,21.82
2016-03-14T02:02:21.427Z,21.86
2016-03-14T02:03:21.430Z,21.86
2016-03-14T02:04:21.433Z,21.84
2016-03-14T02:05:21.451Z,21.83
2016-03-14T02:06:21.453Z,21.91
2016-03-14T02:07:21.456Z,21.86
2016-03-14T02:08:21.475Z,21.83
2016-03-14T02:09:21.461Z,21.88
2016-03-14T02:10:21.464Z,21.8
2016-03-14T02:11:21.327Z,21.79
2016-03-14T02:12:21.485Z,21.86
2016-03-14T02:13:21.488Z,21.88
2016-03-14T02:14:21.491Z,21.9
2016-03-14T02:15:21.493Z,21.83
2016-03-14T02:16:21.511Z,21.91
2016-03-14T02:17:21.499Z,21.9
2016-03-14T02:18:21.532Z,21.82
2016-03-14T02:19:21.535Z,21.96
2016-03-14T02:20:21.538Z,21.84
2016-03-14T02:21:21.524Z,21.84
2016-03-14T02:22:21.543Z,21.91
2016-03-14T02:23:21.545Z,21.88
2016-03-14T02:24:21.549Z,21.92
2016-03-14T02:25:21.582Z,21.82
2016-03-14T02:26:21.554Z,21.86
2016-03-14T02:27:21.557Z,21.92
2016-03-14T02:28:21.575Z,21.99
2016-03-14T02:29:21.578Z,21.92
2016-03-14T02:30:21.596Z,21.9
2016-03-14T02:31:21.583Z,21.92
2016-03-14T02:32:21.586Z,21.98
2016-03-14T02:33:21.588Z,21.96
2016-03-14T02:34:21.607Z,22
2016-03-14T02:35:21.609Z,21.94
2016-03-14T02:36:21.612Z,21.96
2016-03-14T02:37:21.631Z,21.96
2016-03-14T02:38:21.617Z,21.99
2016-03-14T02:39:21.636Z,21.91
2016-03-14T02:40:21.623Z,21.96
2016-03-14T02:41:21.641Z,21.91
2016-03-14T02:42:21.659Z,21.94
2016-03-14T02:43:21.631Z,21.96
2016-03-14T02:44:21.665Z,21.98
2016-03-14T02:45:21.652Z,21.98
2016-03-14T02:46:21.686Z,21.9
2016-03-14T02:47:21.673Z,21.94
2016-03-14T02:48:21.699Z,21.99
2016-03-14T02:49:21.659Z,21.92
2016-03-14T02:50:21.679Z,21.92
2016-03-14T02:51:21.638Z,21.99
2016-03-14T02:52:21.644Z,21.91
2016-03-14T02:53:21.638Z,21.94
2016-03-14T02:54:21.653Z,21.92
2016-03-14T02:55:21.650Z,21.92
2016-03-14T02:56:21.633Z,21.91
2016-03-14T02:57:21.662Z,21.92
2016-03-14T02:58:21.646Z,21.91
2016-03-14T02:59:21.678Z,21.96
2016-03-14T03:00:21.649Z,21.94
2016-03-14T03:01:21.665Z,21.94
2016-03-14T03:02:21.666Z,21.92
2016-03-14T03:03:21.684Z,21.98
2016-03-14T03:04:21.670Z,21.94
2016-03-14T03:05:21.671Z,21.98
2016-03-14T03:06:21.689Z,21.98
2016-03-14T03:07:21.692Z,21.92
2016-03-14T03:08:21.710Z,21.94
2016-03-14T03:09:21.728Z,21.94
2016-03-14T03:10:21.699Z,21.98
2016-03-14T03:11:21.718Z,21.94
2016-03-14T03:12:21.720Z,21.92
2016-03-14T03:13:21.724Z,21.96
2016-03-14T03:14:21.726Z,21.99
2016-03-14T03:15:21.729Z,21.94
2016-03-14T03:16:21.731Z,21.91
2016-03-14T03:17:21.735Z,21.96
2016-03-14T03:18:21.737Z,21.96
2016-03-14T03:19:21.740Z,22.02
2016-03-14T03:20:21.757Z,22.02
2016-03-14T03:21:21.760Z,21.88
2016-03-14T03:22:21.762Z,21.94
2016-03-14T03:23:21.781Z,21.96
2016-03-14T03:24:21.768Z,21.91
2016-03-14T03:25:21.787Z,21.88
2016-03-14T03:26:21.789Z,21.91
2016-03-14T03:27:21.792Z,21.91
2016-03-14T03:28:21.794Z,21.92
2016-03-14T03:29:21.813Z,21.91
2016-03-14T03:30:21.816Z,21.99
2016-03-14T03:31:21.819Z,21.91
2016-03-14T03:32:21.822Z,21.94
2016-03-14T03:33:21.824Z,21.91
2016-03-14T03:34:21.827Z,21.96
2016-03-14T03:35:21.845Z,21.94
2016-03-14T03:36:21.848Z,21.91
2016-03-14T03:37:21.850Z,21.96
2016-03-14T03:38:21.853Z,21.91
2016-03-14T03:39:21.855Z,21.96
2016-03-14T03:40:21.593Z,21.99
2016-03-14T03:41:21.877Z,21.86
2016-03-14T03:42:21.880Z,21.94
2016-03-14T03:43:21.726Z,21.91
2016-03-14T03:44:21.885Z,21.91
2016-03-14T03:45:21.887Z,21.92
2016-03-14T03:46:21.905Z,22.06
2016-03-14T03:47:21.907Z,21.88
2016-03-14T03:48:21.911Z,22.03
2016-03-14T03:49:21.913Z,22.05
2016-03-14T03:50:21.932Z,21.91
2016-03-14T03:51:21.934Z,21.9
2016-03-14T03:52:21.938Z,21.92
2016-03-14T03:53:21.956Z,21.99
2016-03-14T03:54:21.943Z,22.02
2016-03-14T03:55:21.976Z,22
2016-03-14T03:56:21.948Z,21.88
2016-03-14T03:57:21.966Z,21.92
2016-03-14T03:58:21.969Z,22
2016-03-14T03:59:21.987Z,21.92
2016-03-14T04:00:21.975Z,22
2016-03-14T04:01:21.977Z,22.03
2016-03-14T04:02:21.995Z,21.96
2016-03-14T04:03:22.044Z,21.92
2016-03-14T04:04:22.000Z,21.92
2016-03-14T04:05:22.035Z,21.94
2016-03-14T04:06:21.850Z,21.91
2016-03-14T04:07:22.024Z,21.92
2016-03-14T04:08:22.011Z,22.02
2016-03-14T04:09:22.030Z,22.03
2016-03-14T04:10:22.064Z,21.94
2016-03-14T04:11:22.036Z,21.9
2016-03-14T04:12:22.038Z,22.02
2016-03-14T04:13:22.040Z,21.91
2016-03-14T04:14:22.059Z,21.91
2016-03-14T04:15:22.062Z,21.88
2016-03-14T04:16:22.080Z,21.99
2016-03-14T04:17:22.068Z,21.98
2016-03-14T04:18:22.086Z,21.99
2016-03-14T04:19:22.072Z,22.02
2016-03-14T04:20:22.090Z,21.99
2016-03-14T04:21:22.093Z,22.05
2016-03-14T04:22:22.096Z,21.91
2016-03-14T04:23:22.115Z,22
2016-03-14T04:24:22.118Z,22.05
2016-03-14T04:25:22.120Z,21.99
2016-03-14T04:26:22.107Z,21.94
2016-03-14T04:27:22.126Z,21.94
2016-03-14T04:28:22.144Z,21.96
2016-03-14T04:29:22.131Z,22
2016-03-14T04:30:22.149Z,22.06
2016-03-14T04:31:22.151Z,21.9
2016-03-14T04:32:22.154Z,22.02
2016-03-14T04:33:22.157Z,21.88
2016-03-14T04:34:22.176Z,21.92
2016-03-14T04:35:22.162Z,21.96
2016-03-14T04:36:22.197Z,21.86
2016-03-14T04:37:22.183Z,21.91
2016-03-14T04:38:22.186Z,22.05
2016-03-14T04:39:22.205Z,21.91
2016-03-14T04:40:22.192Z,21.99
2016-03-14T04:41:22.210Z,21.9
2016-03-14T04:42:22.213Z,21.96
2016-03-14T04:43:22.215Z,21.88
2016-03-14T04:44:22.234Z,21.91
2016-03-14T04:45:22.221Z,21.91
2016-03-14T04:46:22.255Z,21.91
2016-03-14T04:47:22.241Z,21.96
2016-03-14T04:48:22.260Z,21.91
2016-03-14T04:49:22.246Z,22.02
2016-03-14T04:50:22.109Z,21.9
2016-03-14T04:51:22.252Z,21.9
2016-03-14T04:52:22.271Z,21.96
2016-03-14T04:53:22.273Z,21.98
2016-03-14T04:54:22.276Z,21.92
2016-03-14T04:55:22.295Z,21.9
2016-03-14T04:56:22.281Z,22.05
2016-03-14T04:57:22.315Z,21.91
2016-03-14T04:58:22.303Z,21.9
2016-03-14T04:59:22.320Z,21.96
2016-03-14T05:00:22.698Z,21.88
2016-03-14T05:01:22.311Z,21.9
2016-03-14T05:02:22.314Z,21.96
2016-03-14T05:03:22.332Z,21.92
2016-03-14T05:04:22.334Z,22.02
2016-03-14T05:05:22.337Z,21.99
2016-03-14T05:06:22.339Z,21.96
2016-03-14T05:07:22.358Z,21.88
2016-03-14T05:08:22.361Z,21.96
2016-03-14T05:09:22.348Z,21.9
2016-03-14T05:10:22.381Z,21.91
2016-03-14T05:11:22.384Z,21.88
2016-03-14T05:12:22.418Z,21.88
2016-03-14T05:13:22.374Z,21.91
2016-03-14T05:14:22.408Z,21.94
2016-03-14T05:15:22.380Z,21.94
2016-03-14T05:16:22.397Z,21.91
2016-03-14T05:17:22.400Z,21.94
2016-03-14T05:18:22.402Z,22.02
2016-03-14T05:19:22.406Z,22.05
2016-03-14T05:20:22.268Z,22.02
2016-03-14T05:21:22.443Z,21.86
2016-03-14T05:22:22.429Z,21.91
2016-03-14T05:23:22.432Z,21.94
2016-03-14T05:24:22.450Z,21.9
2016-03-14T05:25:22.453Z,21.96
2016-03-14T05:26:22.456Z,21.86
2016-03-14T05:27:22.459Z,21.9
2016-03-14T05:28:22.461Z,21.92
2016-03-14T05:29:22.464Z,21.9
2016-03-14T05:30:22.481Z,21.96
2016-03-14T05:31:22.484Z,21.94
2016-03-14T05:32:22.487Z,22
2016-03-14T05:33:22.490Z,21.91
2016-03-14T05:34:22.508Z,22.05
2016-03-14T05:35:22.511Z,21.91
2016-03-14T05:36:22.530Z,22
2016-03-14T05:37:22.517Z,21.91
2016-03-14T05:38:22.520Z,22.02
2016-03-14T05:39:22.522Z,22.06
2016-03-14T05:40:22.369Z,22.05
2016-03-14T05:41:22.543Z,22.06
2016-03-14T05:42:22.546Z,22.06
2016-03-14T05:43:22.549Z,22.03
2016-03-14T05:44:22.567Z,22.05
2016-03-14T05:45:22.569Z,22
2016-03-14T05:46:22.557Z,22.09
2016-03-14T05:47:22.574Z,22.02
2016-03-14T05:48:22.577Z,22.09
2016-03-14T05:49:22.580Z,22.03
2016-03-14T05:50:22.582Z,21.98
2016-03-14T05:51:22.601Z,22.06
2016-03-14T05:52:22.588Z,22.1
2016-03-14T05:53:22.607Z,22.07
2016-03-14T05:54:22.609Z,21.99
2016-03-14T05:55:22.612Z,22.03
2016-03-14T05:56:22.615Z,22.06
2016-03-14T05:57:22.617Z,22.03
2016-03-14T05:58:22.651Z,22.03
2016-03-14T05:59:22.622Z,22.05
2016-03-14T06:00:22.640Z,22.02
2016-03-14T06:01:22.643Z,22.05
2016-03-14T06:02:22.646Z,22.09
2016-03-14T06:03:22.664Z,22.05
2016-03-14T06:04:22.667Z,22.05
2016-03-14T06:05:22.685Z,22.06
2016-03-14T06:06:22.694Z,22.06
2016-03-14T06:07:22.697Z,22.03
2016-03-14T06:08:22.699Z,22.12
2016-03-14T06:09:22.702Z,22.06
2016-03-14T06:10:22.704Z,22.06
2016-03-14T06:11:22.707Z,22.05
2016-03-14T06:12:22.709Z,22.07
2016-03-14T06:13:22.728Z,22.06
2016-03-14T06:14:22.730Z,22
2016-03-14T06:15:22.733Z,22.07
2016-03-14T06:16:22.735Z,22.06
2016-03-14T06:17:22.738Z,22.03
2016-03-14T06:18:22.740Z,22.09
2016-03-14T06:19:22.760Z,22
2016-03-14T06:20:22.746Z,22.05
2016-03-14T06:21:22.749Z,21.99
2016-03-14T06:22:22.767Z,22.09
2016-03-14T06:23:22.770Z,22
2016-03-14T06:24:22.773Z,22.07
2016-03-14T06:25:22.791Z,22.1
2016-03-14T06:26:22.793Z,22.14
2016-03-14T06:27:22.796Z,22.06
2016-03-14T06:28:22.798Z,22.07
2016-03-14T06:29:22.801Z,22.12
2016-03-14T06:30:22.804Z,22.15
2016-03-14T06:31:22.823Z,22.22
2016-03-14T06:32:22.826Z,22.2
2016-03-14T06:33:22.828Z,22.2
2016-03-14T06:34:22.831Z,22.17
2016-03-14T06:35:22.833Z,22.24
2016-03-14T06:36:22.852Z,22.18
2016-03-14T06:37:22.855Z,22.1
2016-03-14T06:38:22.858Z,22.17
2016-03-14T06:39:22.875Z,22.2
2016-03-14T06:40:22.878Z,22.22
2016-03-14T06:41:22.896Z,22.24
2016-03-14T06:42:22.900Z,22.21
2016-03-14T06:43:22.902Z,22.2
2016-03-14T06:44:22.905Z,22.18
2016-03-14T06:45:22.907Z,22.18
2016-03-14T06:46:22.910Z,22.24
2016-03-14T06:47:22.912Z,22.15
2016-03-14T06:48:22.915Z,22.15
2016-03-14T06:49:22.918Z,22.2
2016-03-14T06:50:22.937Z,22.17
2016-03-14T06:51:22.939Z,22.14
2016-03-14T06:52:22.942Z,22.15
2016-03-14T06:53:22.959Z,22.17
2016-03-14T06:54:22.962Z,22.14
2016-03-14T06:55:22.965Z,22.14
2016-03-14T06:56:22.968Z,22.17
2016-03-14T06:57:22.970Z,22.17
2016-03-14T06:58:22.973Z,22.18
2016-03-14T06:59:22.992Z,22.17
2016-03-14T07:00:23.089Z,22.14
2016-03-14T07:01:22.998Z,22.14
2016-03-14T07:02:23.000Z,22.18
2016-03-14T07:03:23.018Z,22.18
2016-03-14T07:04:23.020Z,22.14
2016-03-14T07:05:23.023Z,22.12
2016-03-14T07:06:23.026Z,22.14
2016-03-14T07:07:23.045Z,22.06
2016-03-14T07:08:23.064Z,22.09
2016-03-14T07:09:23.050Z,22.1
2016-03-14T07:10:23.053Z,22.14
2016-03-14T07:11:23.055Z,22.18
2016-03-14T07:12:23.074Z,22.15
2016-03-14T07:13:23.076Z,22.2
2016-03-14T07:14:23.080Z,22.2
2016-03-14T07:15:23.082Z,22.17
2016-03-14T07:16:23.085Z,22.14
2016-03-14T07:17:23.102Z,22.2
2016-03-14T07:18:23.106Z,22.22
2016-03-14T07:19:23.124Z,22.17
2016-03-14T07:20:23.111Z,22.15
2016-03-14T07:21:23.129Z,22.15
2016-03-14T07:22:23.116Z,22.09
2016-03-14T07:23:23.134Z,22.21
2016-03-14T07:24:23.138Z,22.12
2016-03-14T07:25:23.156Z,22.12
2016-03-14T07:26:23.159Z,22.15
2016-03-14T07:27:23.176Z,22.12
2016-03-14T07:28:23.164Z,22.24
2016-03-14T07:29:23.181Z,22.17
2016-03-14T07:30:23.169Z,22.18
2016-03-14T07:31:23.187Z,22.25
2016-03-14T07:32:23.175Z,22.54
2016-03-14T07:33:23.224Z,22.52
2016-03-14T07:34:23.180Z,22.6
2016-03-14T07:35:23.214Z,22.77
2016-03-14T07:36:23.217Z,22.9
2016-03-14T07:37:23.220Z,23
2016-03-14T07:38:23.222Z,23.13
2016-03-14T07:39:23.224Z,23.2
2016-03-14T07:40:23.242Z,23.36
2016-03-14T07:41:23.245Z,23.48
2016-03-14T07:42:23.248Z,23.5
2016-03-14T07:43:23.251Z,23.58
2016-03-14T07:44:23.253Z,23.76
2016-03-14T07:45:23.272Z,23.69
2016-03-14T07:46:23.274Z,23.78
2016-03-14T07:47:23.277Z,23.85
2016-03-14T07:48:23.280Z,23.87
2016-03-14T07:49:23.283Z,23.94
2016-03-14T07:50:23.301Z,24.02
2016-03-14T07:51:23.304Z,23.98
2016-03-14T07:52:23.307Z,24.02
2016-03-14T07:53:23.310Z,24
2016-03-14T07:54:23.312Z,24.03
2016-03-14T07:55:23.330Z,24.02
2016-03-14T07:56:23.332Z,24.08
2016-03-14T07:57:23.335Z,24.03
2016-03-14T07:58:23.337Z,24.03
2016-03-14T07:59:23.357Z,23.97
2016-03-14T08:00:23.375Z,23.98
2016-03-14T08:01:23.362Z,23.98
2016-03-14T08:02:23.364Z,24.05
2016-03-14T08:03:23.367Z,24.02
2016-03-14T08:04:23.386Z,24
2016-03-14T08:05:23.389Z,24
2016-03-14T08:06:23.403Z,24.1
2016-03-14T08:07:23.406Z,24.03
2016-03-14T08:08:23.408Z,24.02
2016-03-14T08:09:23.412Z,24.09
2016-03-14T08:10:23.414Z,23.95
2016-03-14T08:11:23.433Z,24.12
2016-03-14T08:12:23.435Z,24.12
2016-03-14T08:13:23.438Z,24.2
2016-03-14T08:14:23.455Z,24.05
2016-03-14T08:15:23.458Z,24.13
2016-03-14T08:16:23.461Z,24.24
2016-03-14T08:17:23.464Z,24.32
2016-03-14T08:18:23.482Z,24.8
2016-03-14T08:19:23.485Z,25.51
2016-03-14T08:20:23.487Z,25.99
2016-03-14T08:21:23.506Z,26.33
2016-03-14T08:22:23.509Z,26.6
2016-03-14T08:23:23.527Z,26.76
2016-03-14T08:24:23.545Z,26.75
2016-03-14T08:25:23.548Z,26.91
2016-03-14T08:26:23.551Z,27
2016-03-14T08:27:23.570Z,27.07
2016-03-14T08:28:23.587Z,27.12
2016-03-14T08:29:23.606Z,27.06
2016-03-14T08:30:23.608Z,27
2016-03-14T08:31:23.626Z,27.09
2016-03-14T08:32:23.629Z,27.12
2016-03-14T08:33:23.632Z,27.12
2016-03-14T08:34:23.666Z,27.14
2016-03-14T08:35:23.669Z,27.02
2016-03-14T08:36:23.672Z,27.25
2016-03-14T08:37:23.689Z,27.25
2016-03-14T08:38:23.708Z,26.92
2016-03-14T08:39:23.711Z,26.1
2016-03-14T08:40:23.558Z,25.77
2016-03-14T08:41:23.733Z,25.36
2016-03-14T08:42:23.750Z,25.4
2016-03-14T08:43:23.769Z,25.61
2016-03-14T08:44:23.772Z,25.6
2016-03-14T08:45:23.789Z,25.82
2016-03-14T08:46:23.808Z,25.95
2016-03-14T08:47:23.810Z,26.18
2016-03-14T08:48:23.829Z,26.02
2016-03-14T08:49:23.832Z,26.18
2016-03-14T08:50:23.850Z,26.28
2016-03-14T08:51:23.852Z,26.39
2016-03-14T08:52:23.855Z,26.52
2016-03-14T08:53:23.874Z,26.95
2016-03-14T08:54:23.892Z,27.1
2016-03-14T08:55:23.910Z,27.74
2016-03-14T08:56:23.913Z,28
2016-03-14T08:57:23.915Z,27.81
2016-03-14T08:58:23.934Z,27.74
2016-03-14T08:59:23.952Z,27.51
2016-03-14T09:00:23.971Z,28.24
2016-03-14T09:01:23.973Z,28.64
2016-03-14T09:02:23.992Z,28.93
2016-03-14T09:03:23.994Z,28.93
2016-03-14T09:04:24.012Z,29.11
2016-03-14T09:05:24.031Z,29.15
2016-03-14T09:06:24.034Z,29.26
2016-03-14T09:07:24.052Z,29.26
2016-03-14T09:08:24.086Z,29.33
2016-03-14T09:09:24.088Z,29.42
2016-03-14T09:10:24.091Z,29.31
2016-03-14T09:11:24.125Z,29.33
2016-03-14T09:12:24.127Z,29.53
2016-03-14T09:13:24.146Z,29.65
2016-03-14T09:14:24.164Z,29.65
2016-03-14T09:15:24.167Z,29.6
2016-03-14T09:16:24.201Z,29.64
2016-03-14T09:17:24.204Z,29.51
2016-03-14T09:18:24.221Z,29.41
2016-03-14T09:19:24.225Z,29.27
2016-03-14T09:20:24.274Z,29.16
2016-03-14T09:21:24.246Z,28.96
2016-03-14T09:22:24.263Z,29.16
2016-03-14T09:23:24.282Z,29.04
2016-03-14T09:24:24.315Z,28.83
2016-03-14T09:25:24.304Z,28.61
2016-03-14T09:26:24.353Z,28.54
2016-03-14T09:27:24.340Z,28.46
2016-03-14T09:28:24.342Z,28.3
2016-03-14T09:29:24.361Z,28.09
2016-03-14T09:30:24.364Z,27.32
2016-03-14T09:31:24.381Z,26.33
2016-03-14T09:32:24.385Z,25.46
2016-03-14T09:33:24.387Z,25.21
2016-03-14T09:34:24.406Z,24.98
2016-03-14T09:35:24.423Z,24.88
2016-03-14T09:36:24.411Z,24.78
2016-03-14T09:37:24.429Z,24.68
2016-03-14T09:38:24.432Z,24.68
2016-03-14T09:39:24.450Z,24.64
2016-03-14T09:40:24.453Z,24.69
2016-03-14T09:41:24.534Z,24.71
2016-03-14T09:42:24.475Z,24.65
2016-03-14T09:43:24.477Z,24.57
2016-03-14T09:44:24.495Z,24.58
2016-03-14T09:45:24.498Z,24.61
2016-03-14T09:46:24.516Z,24.55
2016-03-14T09:47:24.535Z,24.62
2016-03-14T09:48:24.521Z,24.57
2016-03-14T09:49:24.524Z,24.53
2016-03-14T09:50:24.558Z,24.53
2016-03-14T09:51:24.545Z,24.6
2016-03-14T09:52:24.564Z,24.49
2016-03-14T09:53:24.551Z,24.6
2016-03-14T09:54:24.569Z,24.49
2016-03-14T09:55:24.571Z,24.55
2016-03-14T09:56:24.605Z,24.57
2016-03-14T09:57:24.592Z,24.61
2016-03-14T09:58:24.610Z,24.57
2016-03-14T09:59:24.629Z,24.52
2016-03-14T10:00:24.616Z,24.55
2016-03-14T10:01:24.619Z,24.65
2016-03-14T10:02:24.637Z,24.67
2016-03-14T10:03:24.640Z,24.65
2016-03-14T10:04:24.643Z,24.65
2016-03-14T10:05:24.661Z,24.6
2016-03-14T10:06:24.669Z,24.6
2016-03-14T10:07:24.675Z,24.52
2016-03-14T10:08:24.679Z,24.49
2016-03-14T10:09:24.681Z,24.45
2016-03-14T10:10:24.700Z,24.53
2016-03-14T10:11:24.718Z,24.49
2016-03-14T10:12:24.721Z,24.52
2016-03-14T10:13:24.567Z,24.5
2016-03-14T10:14:24.570Z,24.57
2016-03-14T10:15:24.744Z,24.52
2016-03-14T10:16:24.747Z,24.52
2016-03-14T10:17:24.749Z,24.53
2016-03-14T10:18:24.752Z,24.53
2016-03-14T10:19:24.771Z,24.49
2016-03-14T10:20:24.773Z,24.5
2016-03-14T10:21:24.777Z,24.43
2016-03-14T10:22:24.638Z,24.42
2016-03-14T10:23:24.813Z,24.39
2016-03-14T10:24:24.800Z,24.4
2016-03-14T10:25:24.818Z,24.39
2016-03-14T10:26:24.837Z,24.47
2016-03-14T10:27:24.839Z,24.49
2016-03-14T10:28:24.843Z,24.32
2016-03-14T10:29:24.860Z,24.42
2016-03-14T10:30:24.848Z,24.31
2016-03-14T10:31:24.850Z,24.37
2016-03-14T10:32:24.868Z,24.47
2016-03-14T10:33:24.871Z,24.4
2016-03-14T10:34:24.874Z,24.37
2016-03-14T10:35:24.892Z,24.35
2016-03-14T10:36:24.894Z,24.35
2016-03-14T10:37:24.913Z,24.37
2016-03-14T10:38:24.916Z,24.39
2016-03-14T10:39:24.919Z,24.39
2016-03-14T10:40:24.921Z,24.39
2016-03-14T10:41:24.955Z,24.49
2016-03-14T10:42:24.958Z,24.37
2016-03-14T10:43:24.945Z,24.37
2016-03-14T10:44:24.947Z,24.39
2016-03-14T10:45:24.966Z,24.39
2016-03-14T10:46:24.969Z,24.34
2016-03-14T10:47:24.987Z,24.28
2016-03-14T10:48:24.990Z,24.32
2016-03-14T10:49:24.993Z,24.3
2016-03-14T10:50:25.010Z,24.24
2016-03-14T10:51:25.013Z,24.3
2016-03-14T10:52:25.125Z,24.32
2016-03-14T10:53:25.034Z,24.32
2016-03-14T10:54:25.037Z,24.28
2016-03-14T10:55:24.883Z,24.3
2016-03-14T10:56:25.043Z,24.21
2016-03-14T10:57:25.060Z,24.32
2016-03-14T10:58:25.048Z,24.34
2016-03-14T10:59:25.065Z,24.25
2016-03-14T11:00:25.490Z,24.27
2016-03-14T11:01:25.072Z,24.28
2016-03-14T11:02:25.106Z,24.3
2016-03-14T11:03:25.093Z,24.28
2016-03-14T11:04:25.112Z,24.28
2016-03-14T11:05:25.130Z,24.28
2016-03-14T11:06:25.117Z,24.2
2016-03-14T11:07:25.135Z,24.2
2016-03-14T11:08:25.138Z,24.25
2016-03-14T11:09:25.140Z,24.2
2016-03-14T11:10:25.143Z,24.2
2016-03-14T11:11:25.161Z,24.28
2016-03-14T11:12:25.164Z,24.3
2016-03-14T11:13:25.167Z,24.3
2016-03-14T11:14:25.186Z,24.25
2016-03-14T11:15:25.189Z,24.31
2016-03-14T11:16:25.191Z,24.24
2016-03-14T11:17:25.194Z,24.34
2016-03-14T11:18:25.055Z,24.22
2016-03-14T11:19:25.214Z,24.24
2016-03-14T11:20:25.217Z,24.24
2016-03-14T11:21:25.220Z,24.32
2016-03-14T11:22:25.256Z,24.28
2016-03-14T11:23:25.243Z,24.24
2016-03-14T11:24:25.246Z,24.28
2016-03-14T11:25:25.264Z,24.27
2016-03-14T11:26:25.252Z,24.31
2016-03-14T11:27:25.113Z,24.28
2016-03-14T11:28:25.272Z,24.3
2016-03-14T11:29:25.307Z,24.18
2016-03-14T11:30:25.293Z,24.13
2016-03-14T11:31:25.297Z,24.2
2016-03-14T11:32:25.299Z,24.16
2016-03-14T11:33:25.318Z,24.1
2016-03-14T11:34:25.321Z,24.12
2016-03-14T11:35:25.338Z,24.05
2016-03-14T11:36:26.638Z,24.09
2016-03-14T11:37:25.343Z,24.08
2016-03-14T11:38:25.362Z,24.03
2016-03-14T11:39:25.349Z,24.06
2016-03-14T11:40:25.367Z,24.08
2016-03-14T11:41:25.371Z,23.97
2016-03-14T11:42:25.389Z,24.06
2016-03-14T11:43:25.391Z,24.09
2016-03-14T11:44:25.425Z,23.93
2016-03-14T11:45:25.412Z,24.06
2016-03-14T11:46:25.415Z,24.16
2016-03-14T11:47:25.417Z,24.06
2016-03-14T11:48:25.436Z,24.09
2016-03-14T11:49:25.267Z,24.06
2016-03-14T11:50:25.442Z,24.03
2016-03-14T11:51:25.444Z,24.06
2016-03-14T11:52:25.447Z,24.05
2016-03-14T11:53:25.464Z,24.16
2016-03-14T11:54:25.460Z,24.12
2016-03-14T11:55:25.501Z,24.06
2016-03-14T11:56:25.446Z,24.12
2016-03-14T11:57:25.439Z,24.09
2016-03-14T11:58:25.470Z,24.1
2016-03-14T11:59:25.451Z,24.06
2016-03-14T12:00:25.450Z,24.08
2016-03-14T12:01:25.465Z,24.12
2016-03-14T12:02:25.464Z,24.13
2016-03-14T12:03:25.463Z,24.21
2016-03-14T12:04:25.464Z,24.16
2016-03-14T12:05:25.480Z,24.09
2016-03-14T12:06:25.482Z,24.08
2016-03-14T12:07:25.484Z,24.09
2016-03-14T12:08:25.485Z,24.15
2016-03-14T12:09:25.503Z,24.24
2016-03-14T12:10:25.506Z,24.2
2016-03-14T12:11:25.508Z,24.22
2016-03-14T12:12:25.526Z,24.21
2016-03-14T12:13:25.371Z,24.1
2016-03-14T12:14:25.530Z,24.16
2016-03-14T12:16:25.551Z,24.2
2016-03-14T12:17:25.553Z,24.13
2016-03-14T12:18:25.571Z,24.22
2016-03-14T12:19:25.574Z,24.32
2016-03-14T12:20:25.576Z,24.42
2016-03-14T12:21:25.594Z,24.34
2016-03-14T12:22:25.596Z,24.31
2016-03-14T12:23:25.600Z,24.3
2016-03-14T12:24:25.602Z,24.25
2016-03-14T12:25:25.605Z,24.21
2016-03-14T12:26:25.623Z,24.31
2016-03-14T12:27:25.642Z,24.3
2016-03-14T12:28:25.628Z,24.24
2016-03-14T12:29:25.648Z,24.25
2016-03-14T12:30:25.651Z,24.39
2016-03-14T12:31:25.653Z,24.28
2016-03-14T12:32:25.656Z,24.31
2016-03-14T12:33:25.689Z,24.22
2016-03-14T12:34:25.676Z,24.22
2016-03-14T12:35:25.694Z,24.21
2016-03-14T12:36:25.698Z,24.22
2016-03-14T12:37:25.700Z,24.22
2016-03-14T12:38:25.703Z,24.22
2016-03-14T12:39:25.721Z,24.25
2016-03-14T12:40:25.724Z,24.21
2016-03-14T12:41:25.726Z,24.15
2016-03-14T12:42:25.745Z,24.16
2016-03-14T12:43:25.747Z,24.21
2016-03-14T12:44:25.750Z,24.16
2016-03-14T12:45:34.783Z,24.16
2016-03-14T12:46:25.771Z,24.13
2016-03-14T12:47:25.821Z,24.24
2016-03-14T12:48:25.776Z,24.22
2016-03-14T12:49:25.779Z,24.25
2016-03-14T12:50:25.797Z,24.22
2016-03-14T12:51:25.800Z,24.28
2016-03-14T12:52:25.802Z,24.22
2016-03-14T12:53:25.822Z,24.09
2016-03-14T12:54:25.824Z,24.08
2016-03-14T12:55:25.842Z,24.1
2016-03-14T12:56:25.830Z,24.08
2016-03-14T12:57:25.848Z,24.02